Weather observations for the past three days for
Statesboro, Statesboro-Bulloch County Airport
| Date | Time (edt) | Wind (mph) | Vis. (mi.) | Weather | Sky Cond. | Temperature (ºF) | Relative Humidity | Wind Chill (°F) | Heat Index (°F) | Pressure | Precipitation (in) | ||||||
|---|---|---|---|---|---|---|---|---|---|---|---|---|---|---|---|---|---|
| Air | Dwpt | 6 hour | altimeter (in) | sea level (mb) | 1 hr | 3 hr | 6 hr | ||||||||||
| Max. | Min. | ||||||||||||||||
| 10 | 16:55 | Vrbl 1 | 10.00 | Partly Cloudy | SCT060 | 86 | 62.6 | 46% | 87 | 29.94 | 0.0 | ||||||
| 10 | 16:35 | W 12 | 10.00 | Mostly Cloudy | BKN060 BKN070 | 86 | 62.6 | 46% | 87 | 29.94 | 0.0 | ||||||
| 10 | 16:15 | NW 9 | 10.00 | Mostly Cloudy | BKN050 BKN065 | 86 | 62.6 | 46% | 87 | 29.95 | 0.0 | ||||||
| 10 | 15:55 | W 7 | 10.00 | Mostly Cloudy | BKN050 | 86 | 62.6 | 46% | 87 | 29.95 | 0.0 | ||||||
| 10 | 15:35 | Vrbl 6 | 10.00 | Mostly Cloudy | BKN050 | 86 | 64.4 | 49% | 87 | 29.96 | 0.0 | ||||||
| 10 | 15:15 | W 8 | 10.00 | Partly Cloudy | SCT050 | 84.2 | 62.6 | 48% | 85 | 29.96 | 0.0 | ||||||
| 10 | 14:55 | NW 9 | 10.00 | Mostly Cloudy | BKN050 | 84.2 | 64.4 | 51% | 86 | 29.97 | 0.0 | ||||||
| 10 | 14:35 | Vrbl 7 | 10.00 | Mostly Cloudy | BKN050 | 82.4 | 62.6 | 51% | 83 | 29.98 | 0.0 | ||||||
| 10 | 14:15 | N 5 | 10.00 | Overcast | OVC048 | 82.4 | 64.4 | 55% | 84 | 29.98 | 0.0 | ||||||
| 10 | 13:55 | Vrbl 5 | 10.00 | Mostly Cloudy | BKN048 BKN050 | 82.4 | 62.6 | 83.7 | 66 | 51% | 83 | 29.99 | 0.0 | ||||
| 10 | 13:35 | S 3 | 10.00 | A Few Clouds | FEW043 | 82.4 | 62.6 | 51% | 83 | 29.99 | 0.0 | ||||||
| 10 | 13:15 | NE 3 | 10.00 | Mostly Cloudy | BKN041 | 80.6 | 64.4 | 58% | 82 | 30 | 0.0 | ||||||
| 10 | 12:55 | Vrbl 7 | 10.00 | Partly Cloudy | SCT041 | 80.6 | 64.4 | 58% | 82 | 30 | 0.0 | ||||||
| 10 | 12:35 | Vrbl 6 | 10.00 | A Few Clouds | FEW041 | 80.6 | 64.4 | 58% | 82 | 30.01 | 0.0 | ||||||
| 10 | 12:15 | Vrbl 3 | 10.00 | Fair | CLR | 80.6 | 64.4 | 58% | 82 | 30.01 | 0.0 | ||||||
| 10 | 11:55 | Vrbl 5 | 10.00 | Fair | CLR | 78.8 | 62.6 | 58% | 80 | 30.01 | 0.0 | ||||||
| 10 | 11:28 | NW 6 | 10.00 | Partly Cloudy | SCT031 | 77 | 64.4 | 65% | 79 | 30.01 | 0.0 | ||||||
| 10 | 11:15 | Vrbl 2 | 10.00 | A Few Clouds | FEW029 | 77 | 64.4 | 65% | 79 | 30.01 | 0.0 | ||||||
| 10 | 10:55 | Vrbl 1 | 10.00 | A Few Clouds | FEW029 | 77 | 64.4 | 65% | 79 | 30.01 | 0.0 | ||||||
| 10 | 10:35 | Vrbl 6 | 10.00 | Fair | CLR | 75.2 | 64.4 | 69% | 77 | 30.01 | 0.0 | ||||||
| 10 | 10:15 | Vrbl 3 | 10.00 | Fair | CLR | 75.2 | 64.4 | 69% | 77 | 30 | 0.0 | ||||||
| 10 | 09:55 | W 8 | 10.00 | A Few Clouds | FEW017 | 73.4 | 66.2 | 78% | 30 | 0.0 | |||||||
| 10 | 09:35 | W 6 | 10.00 | A Few Clouds | FEW070 | 71.6 | 66.2 | 83% | 30 | 0.0 | |||||||
| 10 | 09:15 | NW 5 | 10.00 | Mostly Cloudy | BKN070 | 71.6 | 66.2 | 83% | 30 | 0.0 | |||||||
| 10 | 08:55 | W 7 | 10.00 | Overcast | OVC070 | 69.8 | 68 | 94% | 30.01 | 0.0 | |||||||
| 10 | 08:35 | W 5 | 10.00 | Overcast | OVC070 | 68 | 66.2 | 94% | 30.01 | 0.0 | |||||||
| 10 | 08:15 | W 3 | 10.00 | Overcast | OVC070 | 66.2 | 66.2 | 100% | 30 | 0.0 | |||||||
| 10 | 07:55 | W 5 | 10.00 | Overcast | OVC070 | 66.2 | 66.2 | 67.1 | 64.9 | 100% | 30 | 0.0 | |||||
| 10 | 07:15 | W 2 | 10.00 | A Few Clouds | FEW070 | 66.2 | 66.2 | 100% | 29.98 | 0.0 | |||||||
| 10 | 06:55 | W 2 | 10.00 | A Few Clouds | FEW070 | 66.2 | 66.2 | 100% | 29.98 | 0.0 | |||||||
| 10 | 06:35 | NW 3 | 10.00 | Partly Cloudy | SCT070 | 66.2 | 66.2 | 100% | 29.97 | 0.0 | |||||||
| 10 | 06:15 | W 2 | 10.00 | Overcast | OVC070 | 66.2 | 66.2 | 100% | 29.96 | 0.0 | |||||||
| 10 | 05:55 | SW 5 | 10.00 | Overcast | FEW004 OVC070 | 66.2 | 66.2 | 100% | 29.96 | 0.0 | |||||||
| 10 | 05:35 | SW 5 | 10.00 | Overcast | FEW004 BKN070 OVC085 | 66.2 | 66.2 | 100% | 29.96 | 0.0 | |||||||
| 10 | 05:15 | SW 6 | 10.00 | Overcast | OVC070 | 66.2 | 66.2 | 100% | 29.96 | 0.0 | |||||||
| 10 | 04:55 | W 5 | 10.00 | Mostly Cloudy | BKN070 BKN085 | 66.2 | 66.2 | 100% | 29.96 | 0.0 | |||||||
| 10 | 04:35 | W 2 | 10.00 | Partly Cloudy | SCT070 SCT085 | 66.2 | 66.2 | 100% | 29.94 | 0.0 | |||||||
| 10 | 04:15 | SW 3 | 10.00 | Overcast | OVC070 | 66.2 | 66.2 | 100% | 29.93 | 0.0 | |||||||
| 10 | 03:55 | Vrbl 2 | 10.00 | Mostly Cloudy | SCT070 BKN100 BKN120 | 66.2 | 66.2 | 100% | 29.93 | 0.0 | 0.01 | ||||||
| 10 | 03:35 | SW 2 | 8.00 | Light Rain | SCT050 SCT075 BKN100 | 66.2 | 66.2 | 100% | 29.92 | 0.0 | |||||||
| 10 | 03:15 | W 1 | 10.00 | Light Drizzle | SCT050 BKN060 OVC110 | 66.2 | 66.2 | 100% | 29.92 | 0.0 | |||||||
| 10 | 02:55 | S 3 | 10.00 | Light Rain | SCT060 BKN070 BKN110 | 66.2 | 66.2 | 100% | 29.92 | 0.0 | |||||||
| 10 | 02:30 | W 2 | 10.00 | Overcast | BKN070 OVC080 | 66.2 | 66.2 | 100% | 29.92 | 0.0 | |||||||
| 10 | 02:15 | Vrbl 1 | 10.00 | Overcast | BKN070 OVC090 | 68 | 66.2 | 94% | 29.93 | 0.0 | |||||||
| 10 | 01:48 | SW 6 | 10.00 | Overcast | OVC090 | 66.2 | 66.2 | 100% | 29.93 | 0.0 | |||||||
| 10 | 01:35 | SW 5 | 10.00 | Overcast | OVC090 | 68 | 66.2 | 94% | 29.93 | 0.0 | |||||||
| 10 | 01:15 | SW 6 | 10.00 | Overcast | OVC100 | 68 | 66.2 | 94% | 29.94 | 0.0 | |||||||
| 10 | 00:55 | SW 6 | 10.00 | Overcast | BKN100 OVC120 | 68 | 66.2 | 94% | 29.94 | 0.0 | |||||||
| 10 | 00:35 | SW 7 | 10.00 | Mostly Cloudy | BKN100 | 66.2 | 66.2 | 100% | 29.95 | 0.0 | |||||||
| 10 | 00:15 | SW 6 | 10.00 | Mostly Cloudy | BKN110 | 66.2 | 66.2 | 100% | 29.94 | 0.0 | |||||||
| 09 | 23:55 | SW 6 | 10.00 | Partly Cloudy | SCT120 | 66.2 | 66.2 | 100% | 29.94 | 0.0 | |||||||
| 09 | 23:35 | SW 6 | 10.00 | Fair | CLR | 66.2 | 66.2 | 100% | 29.93 | 0.0 | |||||||
| 09 | 23:15 | SW 5 | 10.00 | Fair | CLR | 66.2 | 66.2 | 100% | 29.93 | 0.0 | |||||||
| 09 | 22:55 | W 3 | 10.00 | A Few Clouds | FEW110 | 68 | 66.2 | 94% | 29.94 | 0.0 | |||||||
| 09 | 22:35 | W 3 | 10.00 | Partly Cloudy | SCT110 | 68 | 66.2 | 94% | 29.94 | 0.0 | |||||||
| 09 | 22:15 | W 5 | 10.00 | Partly Cloudy | SCT110 | 68 | 66.2 | 94% | 29.93 | 0.0 | |||||||
| 09 | 21:55 | SW 7 | 10.00 | A Few Clouds | FEW012 | 68 | 66.2 | 94% | 29.93 | 0.0 | |||||||
| 09 | 21:35 | SW 5 | 10.00 | Partly Cloudy | SCT012 | 68 | 66.2 | 94% | 29.92 | 0.0 | |||||||
| 09 | 21:15 | SW 7 | 10.00 | Partly Cloudy | SCT012 | 68 | 66.2 | 94% | 29.91 | 0.0 | |||||||
| 09 | 20:55 | SW 7 | 10.00 | Fair | CLR | 69.8 | 66.2 | 88% | 29.9 | 0.0 | |||||||
| 09 | 20:35 | SW 7 | 10.00 | Fair | CLR | 69.8 | 66.2 | 88% | 29.89 | 0.0 | |||||||
| 09 | 20:15 | SW 8 | 10.00 | Partly Cloudy | SCT095 | 69.8 | 66.2 | 88% | 29.89 | 0.0 | |||||||
| 09 | 19:55 | SW 5 | 10.00 | Mostly Cloudy | FEW019 BKN095 | 71.6 | 66.2 | 73.6 | 70.7 | 83% | 29.89 | 0.0 | |||||
| 09 | 19:35 | SW 7 | 10.00 | Partly Cloudy | FEW019 SCT100 | 71.6 | 66.2 | 83% | 29.89 | 0.0 | |||||||
| 09 | 19:15 | SW 6 | 10.00 | Mostly Cloudy | FEW020 FEW024 BKN110 | 71.6 | 66.2 | 83% | 29.88 | 0.0 | |||||||
| 09 | 18:55 | W 8 | 10.00 | Mostly Cloudy | SCT022 BKN110 | 71.6 | 66.2 | 83% | 29.88 | 0.0 | |||||||
| 09 | 18:35 | SW 9 | 10.00 | Partly Cloudy | SCT022 SCT120 | 71.6 | 64.4 | 78% | 29.88 | 0.0 | |||||||
| 09 | 18:15 | SW 8 | 10.00 | A Few Clouds | FEW024 | 73.4 | 64.4 | 74% | 29.87 | 0.0 | |||||||
| 09 | 17:55 | SW 10 | 10.00 | A Few Clouds | FEW023 FEW028 | 73.4 | 64.4 | 74% | 29.87 | 0.0 | |||||||
| 09 | 17:35 | SW 7 | 10.00 | Partly Cloudy | SCT023 SCT028 | 73.4 | 64.4 | 74% | 29.87 | 0.0 | |||||||
| 09 | 17:15 | W 6 | 10.00 | Fair | CLR | 73.4 | 66.2 | 78% | 29.88 | 0.0 | |||||||
| 09 | 16:55 | Vrbl 7 | 10.00 | Fair | CLR | 73.4 | 66.2 | 78% | 29.87 | 0.0 | |||||||
| 09 | 16:35 | W 8 | 10.00 | Light Rain | FEW027 | 71.6 | 66.2 | 83% | 29.89 | 0.0 | |||||||
| 09 | 16:15 | W 7 | 10.00 | Light Rain | FEW021 FEW027 | 71.6 | 66.2 | 83% | 29.89 | 0.0 | |||||||
| 09 | 15:55 | W 5 | 10.00 | Fair | CLR | 73.4 | 66.2 | 78% | 29.88 | 0.0 | |||||||
| 09 | 15:35 | W 6 | 10.00 | Partly Cloudy | SCT035 SCT042 | 71.6 | 66.2 | 83% | 29.89 | 0.0 | |||||||
| 09 | 15:15 | Vrbl 7 | 10.00 | Overcast | OVC037 | 71.6 | 66.2 | 83% | 29.9 | 0.0 | |||||||
| 09 | 14:55 | SW 10 | 10.00 | Overcast | OVC039 | 71.6 | 66.2 | 83% | 29.91 | 0.0 | |||||||
| 09 | 14:35 | W 7 | 10.00 | Overcast | OVC041 | 71.6 | 66.2 | 83% | 29.91 | 0.0 | |||||||
| 09 | 14:15 | SW 7 | 10.00 | Overcast | FEW021 SCT028 OVC037 | 71.6 | 66.2 | 83% | 29.92 | 0.0 | |||||||
| 09 | 13:55 | W 9 | 10.00 | Mostly Cloudy | BKN023 | 73.4 | 66.2 | 75.7 | 64.6 | 78% | 29.92 | 0.0 | |||||
| 09 | 13:35 | S 8 | 10.00 | Partly Cloudy | SCT023 | 75.2 | 66.2 | 74% | 77 | 29.89 | 0.0 | ||||||
| 09 | 13:15 | SW 7 | 10.00 | Fair | CLR | 73.4 | 64.4 | 74% | 29.89 | 0.0 | |||||||
| 09 | 12:55 | SW 8 | 10.00 | Light Rain | CLR | 73.4 | 66.2 | 78% | 29.9 | 0.0 | |||||||
| 09 | 12:35 | SW 9 | 10.00 | Fair | CLR | 73.4 | 64.4 | 74% | 29.91 | 0.0 | |||||||
| 09 | 12:15 | W 10 | 10.00 | Light Rain | SCT085 | 73.4 | 66.2 | 78% | 29.92 | 0.0 | |||||||
| 09 | 11:55 | SW 13 | 10.00 | Partly Cloudy | SCT085 | 75.2 | 64.4 | 69% | 77 | 29.91 | 0.0 | ||||||
| 09 | 11:35 | SW 10 | 10.00 | A Few Clouds | FEW095 | 75.2 | 64.4 | 69% | 77 | 29.91 | 0.0 | ||||||
| 09 | 11:15 | SW 10 | 10.00 | Fair | CLR | 75.2 | 66.2 | 74% | 77 | 29.91 | 0.0 | ||||||
| 09 | 10:55 | SW 10 | 10.00 | A Few Clouds | FEW080 | 75.2 | 66.2 | 74% | 77 | 29.92 | 0.0 | ||||||
| 09 | 10:35 | SW 12 G 17 | 10.00 | Partly Cloudy | SCT080 | 73.4 | 66.2 | 78% | 29.92 | 0.0 | |||||||
| 09 | 10:15 | SW 9 | 10.00 | Partly Cloudy | SCT012 SCT080 | 73.4 | 68 | 83% | 29.93 | 0.0 | |||||||
| 09 | 09:55 | SW 6 | 10.00 | Overcast | FEW012 OVC080 | 69.8 | 66.2 | 88% | 29.93 | 0.0 | |||||||
| 09 | 09:35 | S 6 | 10.00 | Overcast | FEW006 OVC080 | 68 | 66.2 | 94% | 29.93 | 0.0 | |||||||
| 09 | 09:15 | S 6 | 10.00 | Overcast | BKN006 OVC080 | 68 | 66.2 | 94% | 29.92 | 0.0 | |||||||
| 09 | 08:55 | Vrbl 2 | 10.00 | Overcast | BKN004 OVC080 | 68 | 66.2 | 94% | 29.92 | 0.0 | |||||||
| 09 | 08:35 | S 3 | 8.00 | Overcast | OVC004 | 66.2 | 66.2 | 100% | 29.93 | 0.0 | |||||||
| 09 | 08:15 | S 2 | 6.00 | Fog/Mist | OVC002 | 66.2 | 66.2 | 100% | 29.93 | 0.0 | |||||||
| 09 | 07:55 | SW 3 | 2.50 | Fog/Mist | OVC002 | 64.4 | 64.4 | 64.8 | 61.3 | 100% | 29.92 | 0.0 | |||||
| 09 | 07:35 | SW 3 | 0.75 | Fog/Mist | OVC002 | 64.4 | 64.4 | 100% | 29.92 | 0.0 | |||||||
| 09 | 07:15 | S 5 | 1.00 | Fog/Mist | OVC002 | 64.4 | 64.4 | 100% | 29.91 | 0.0 | |||||||
| 09 | 06:55 | S 6 | 0.25 | Fog | OVC002 | 64.4 | 64.4 | 100% | 29.89 | 0.0 | |||||||
| 09 | 06:35 | SW 2 | 1.00 | Fog/Mist | OVC002 | 64.4 | 64.4 | 100% | 29.89 | 0.0 | |||||||
| 09 | 06:15 | S 2 | 2.00 | Fog/Mist | OVC004 | 64.4 | 64.4 | 100% | 29.89 | 0.0 | |||||||
| 09 | 05:55 | SE 2 | 5.00 | Fog/Mist | OVC004 | 64.4 | 64.4 | 100% | 29.89 | 0.0 | |||||||
| 09 | 05:35 | SE 2 | 7.00 | Mostly Cloudy | BKN004 | 62.6 | 62.6 | 100% | 29.88 | 0.0 | |||||||
| 09 | 05:15 | SE 5 | 4.00 | Fog/Mist | FEW004 | 60.8 | 60.8 | 100% | 29.87 | 0.0 | |||||||
| 09 | 04:55 | SE 5 | 6.00 | Fog/Mist | CLR | 62.6 | 62.6 | 100% | 29.88 | 0.0 | |||||||
| 09 | 04:35 | Calm | 10.00 | Fair | CLR | 62.6 | 62.6 | 100% | 29.9 | 0.0 | |||||||
| 09 | 04:15 | SE 1 | 10.00 | A Few Clouds | FEW110 | 62.6 | 62.6 | 100% | 29.9 | 0.0 | |||||||
| 09 | 03:55 | SE 5 | 10.00 | Partly Cloudy | SCT120 | 62.6 | 62.6 | 100% | 29.88 | 0.0 | |||||||
| 09 | 03:35 | SE 5 | 10.00 | Mostly Cloudy | BKN120 | 64.4 | 64.4 | 100% | 29.89 | 0.0 | |||||||
| 09 | 03:15 | NW 2 | 10.00 | A Few Clouds | FEW120 | 64.4 | 64.4 | 100% | 29.92 | 0.0 | |||||||
| 09 | 02:55 | S 2 | 10.00 | Fair | CLR | 64.4 | 64.4 | 100% | 29.91 | 0.0 | |||||||
| 09 | 02:35 | SW 3 | 10.00 | Fair | CLR | 64.4 | 62.6 | 94% | 29.91 | 0.0 | |||||||
| 09 | 02:15 | S 2 | 10.00 | Fair | CLR | 64.4 | 62.6 | 94% | 29.91 | 0.0 | |||||||
| 09 | 01:55 | S 10 | 10.00 | Fair | CLR | 64.4 | 62.6 | 70.5 | 63.7 | 94% | 29.9 | 0.0 | |||||
| 09 | 01:35 | S 10 | 10.00 | Fair | CLR | 64.4 | 64.4 | 100% | 29.92 | 0.0 | |||||||
| 09 | 01:15 | S 10 | 10.00 | Fair | CLR | 64.4 | 64.4 | 100% | 29.94 | 0.0 | |||||||
| 09 | 00:55 | S 10 | 10.00 | A Few Clouds | FEW070 | 64.4 | 64.4 | 100% | 29.95 | 0.0 | |||||||
| 09 | 00:35 | SE 3 | 8.00 | Light Rain | SCT050 BKN070 BKN090 | 64.4 | 64.4 | 100% | 29.95 | 0.0 | |||||||
| 09 | 00:15 | Vrbl 1 | 10.00 | Overcast | SCT028 BKN046 OVC095 | 64.4 | 62.6 | 94% | 29.97 | 0.0 | |||||||
| 08 | 23:55 | Vrbl 3 | 10.00 | Overcast | BKN026 BKN060 OVC085 | 66.2 | 62.6 | 88% | 29.98 | 0.0 | |||||||
| 08 | 23:35 | S 5 | 10.00 | Mostly Cloudy | BKN029 BKN085 BKN120 | 66.2 | 62.6 | 88% | 29.97 | 0.0 | |||||||
| 08 | 23:15 | S 5 | 10.00 | Partly Cloudy | FEW034 SCT100 SCT110 | 66.2 | 62.6 | 88% | 29.97 | 0.0 | |||||||
| 08 | 22:55 | SE 12 | 10.00 | Overcast | FEW050 SCT075 OVC100 | 66.2 | 62.6 | 88% | 29.93 | 0.0 | |||||||
| 08 | 22:35 | S 8 | 10.00 | Mostly Cloudy | FEW047 SCT075 BKN100 | 66.2 | 62.6 | 88% | 29.96 | 0.0 | |||||||
| 08 | 22:15 | S 10 | 10.00 | Light Rain | FEW049 BKN090 BKN110 | 66.2 | 62.6 | 88% | 29.97 | 0.0 | |||||||
| 08 | 21:55 | S 8 | 10.00 | Light Rain | SCT060 SCT070 BKN085 | 68 | 60.8 | 78% | 29.99 | 0.0 | |||||||
| 08 | 21:35 | S 8 | 10.00 | A Few Clouds | FEW120 | 68 | 60.8 | 78% | 29.99 | 0.0 | |||||||
| 08 | 21:15 | SE 5 | 10.00 | Fair | CLR | 68 | 60.8 | 78% | 29.98 | 0.0 | |||||||
| 08 | 20:56 | SE 6 | 10.00 | Fair | CLR | 68 | 60.8 | 78% | 29.97 | 0.0 | |||||||
| 08 | 20:35 | SE 8 | 10.00 | Mostly Cloudy | BKN100 | 68 | 60.8 | 78% | 29.96 | 0.0 | |||||||
| 08 | 20:15 | SE 8 | 10.00 | Mostly Cloudy | BKN100 | 69.8 | 60.8 | 73% | 29.95 | 0.0 | |||||||
| 08 | 19:55 | SE 8 | 10.00 | Fair | CLR | 69.8 | 59 | 75.7 | 70.5 | 69% | 29.95 | 0.0 | |||||
| 08 | 19:35 | SE 6 | 10.00 | Fair | CLR | 71.6 | 60.8 | 69% | 29.94 | 0.0 | |||||||
| 08 | 18:55 | NE 3 | 10.00 | Fair | CLR | 71.6 | 59 | 65% | 29.92 | 0.0 | |||||||
| 08 | 18:35 | NE 3 | 10.00 | Fair | CLR | 73.4 | 57.2 | 57% | 29.92 | 0.0 | |||||||
| 08 | 18:15 | NE 3 | 10.00 | Fair | CLR | 75.2 | 57.2 | 54% | 78 | 29.92 | 0.0 | ||||||
| 08 | 17:55 | SE 2 | 10.00 | Fair | CLR | 75.2 | 57.2 | 54% | 78 | 29.92 | 0.0 | ||||||
| 08 | 17:35 | SE 5 | 10.00 | Fair | CLR | 75.2 | 55.4 | 50% | 78 | 29.93 | 0.0 | ||||||
| 08 | 17:15 | SE 6 | 10.00 | Fair | CLR | 75.2 | 55.4 | 50% | 78 | 29.92 | 0.0 | ||||||
| 08 | 16:55 | SE 5 | 10.00 | Fair | CLR | 75.2 | 55.4 | 50% | 78 | 29.93 | 0.0 | ||||||
| 08 | 16:35 | SE 5 | 10.00 | Fair | CLR | 75.2 | 55.4 | 50% | 78 | 29.93 | 0.0 | ||||||
| 08 | 16:15 | Vrbl 2 | 10.00 | Fair | CLR | 75.2 | 55.4 | 50% | 78 | 29.95 | 0.0 | ||||||
| 08 | 15:35 | Vrbl 3 | 10.00 | Fair | CLR | 73.4 | 53.6 | 50% | 29.96 | 0.0 | |||||||
| 08 | 15:15 | E 7 | 10.00 | Fair | CLR | 75.2 | 53.6 | 47% | 78 | 29.95 | 0.0 | ||||||
| 08 | 14:55 | SE 5 | 10.00 | Fair | CLR | 75.2 | 53.6 | 47% | 78 | 29.97 | 0.0 | ||||||
| 08 | 14:35 | Vrbl 6 | 10.00 | Fair | CLR | 73.4 | 51.8 | 47% | 29.98 | 0.0 | |||||||
| 08 | 14:15 | E 6 | 10.00 | Fair | CLR | 73.4 | 53.6 | 50% | 29.98 | 0.0 | |||||||
| 08 | 13:35 | E 7 | 10.00 | Fair | CLR | 75.2 | 51.8 | 44% | 78 | 29.99 | 0.0 | ||||||
| 08 | 13:15 | Vrbl 6 | 10.00 | Fair | CLR | 73.4 | 51.8 | 47% | 30 | 0.0 | |||||||
| 08 | 12:55 | Vrbl 7 | 10.00 | Fair | CLR | 73.4 | 50 | 44% | 30.01 | 0.0 | |||||||
| 08 | 12:35 | SE 8 | 10.00 | Fair | CLR | 73.4 | 51.8 | 47% | 30.01 | 0.0 | |||||||
| 08 | 12:15 | E 6 G 17 | 10.00 | Fair | CLR | 71.6 | 50 | 47% | 30.02 | 0.0 | |||||||
| 08 | 11:55 | NE 9 G 17 | 10.00 | Fair | CLR | 71.6 | 51.8 | 50% | 30.02 | 0.0 | |||||||
| 08 | 11:35 | NE 13 | 10.00 | Fair | CLR | 69.8 | 51.8 | 53% | 30.04 | 0.0 | |||||||
| 08 | 11:15 | E 12 | 10.00 | Fair | CLR | 68 | 51.8 | 56% | 30.04 | 0.0 | |||||||
| 08 | 10:55 | NE 12 | 10.00 | Fair | CLR | 66.2 | 51.8 | 60% | 30.05 | 0.0 | |||||||
| 08 | 10:35 | NE 12 | 10.00 | Fair | CLR | 66.2 | 51.8 | 60% | 30.04 | 0.0 | |||||||
| 08 | 10:15 | E 6 G 16 | 10.00 | Fair | CLR | 66.2 | 51.8 | 60% | 30.03 | 0.0 | |||||||
| 08 | 09:35 | NE 7 | 10.00 | Fair | CLR | 64.4 | 55.4 | 73% | 30.03 | 0.0 | |||||||
| 08 | 09:15 | Vrbl 6 | 10.00 | Fair | CLR | 64.4 | 55.4 | 73% | 30.02 | 0.0 | |||||||
| 08 | 08:55 | Vrbl 5 | 10.00 | Fair | CLR | 62.6 | 57.2 | 83% | 30.02 | 0.0 | |||||||
| 08 | 08:35 | Vrbl 6 | 10.00 | Fair | CLR | 62.6 | 57.2 | 83% | 30.01 | 0.0 | |||||||
| 08 | 08:15 | NE 6 | 10.00 | Fair | CLR | 62.6 | 59 | 88% | 30 | 0.0 | |||||||
| 08 | 07:55 | NE 6 | 10.00 | Fair | CLR | 60.8 | 57.2 | 67.3 | 61 | 88% | 29.99 | 0.0 | |||||
| 08 | 07:35 | NE 5 | 10.00 | Fair | CLR | 60.8 | 57.2 | 88% | 29.98 | 0.0 | |||||||
| 08 | 07:15 | NE 3 | 10.00 | Fair | CLR | 60.8 | 57.2 | 88% | 29.97 | 0.0 | |||||||
| 08 | 06:55 | N 5 | 10.00 | Fair | CLR | 60.8 | 57.2 | 88% | 29.97 | 0.0 | |||||||
| 08 | 06:35 | N 6 | 10.00 | Fair | CLR | 60.8 | 57.2 | 88% | 29.95 | 0.0 | |||||||
| 08 | 06:15 | Vrbl 5 | 10.00 | Fair | CLR | 60.8 | 57.2 | 88% | 29.95 | 0.0 | |||||||
| 08 | 05:55 | N 6 | 10.00 | Fair | CLR | 62.6 | 57.2 | 83% | 29.94 | 0.0 | |||||||
| 08 | 05:35 | NW 3 | 10.00 | Fair | CLR | 62.6 | 57.2 | 83% | 29.94 | 0.0 | |||||||
| 08 | 05:15 | NW 3 | 10.00 | Fair | CLR | 64.4 | 57.2 | 78% | 29.92 | 0.0 | |||||||
| 08 | 04:55 | N 5 | 10.00 | Fair | CLR | 64.4 | 57.2 | 78% | 29.92 | 0.0 | |||||||
| 08 | 04:35 | Vrbl 5 | 10.00 | Fair | CLR | 64.4 | 57.2 | 78% | 29.91 | 0.0 | |||||||
| 08 | 04:15 | NW 6 | 10.00 | A Few Clouds | FEW037 | 64.4 | 57.2 | 78% | 29.92 | 0.0 | |||||||
| 08 | 03:55 | N 5 | 10.00 | Mostly Cloudy | BKN037 | 66.2 | 57.2 | 73% | 29.92 | 0.0 | |||||||
| 08 | 03:35 | NW 5 | 10.00 | Overcast | OVC037 | 66.2 | 57.2 | 73% | 29.92 | 0.0 | |||||||
| 08 | 03:15 | NW 6 | 10.00 | Overcast | OVC037 | 66.2 | 59 | 78% | 29.92 | 0.0 | |||||||
| 08 | 02:55 | NW 5 | 10.00 | Overcast | OVC037 | 66.2 | 59 | 78% | 29.92 | 0.0 | |||||||
| 08 | 02:35 | NW 5 | 10.00 | Partly Cloudy | SCT039 | 66.2 | 59 | 78% | 29.93 | 0.0 | |||||||
| 08 | 02:15 | NW 3 | 10.00 | Fair | CLR | 66.2 | 60.8 | 83% | 29.93 | 0.0 | |||||||
| 08 | 01:55 | NW 6 | 10.00 | A Few Clouds | FEW037 | 66.2 | 60.8 | 74.5 | 66.7 | 83% | 29.93 | 0.0 | |||||
| 08 | 01:35 | NW 5 | 10.00 | A Few Clouds | FEW035 | 68 | 60.8 | 78% | 29.93 | 0.0 | |||||||
| 08 | 01:15 | NW 6 | 10.00 | Fair | CLR | 68 | 62.6 | 83% | 29.92 | 0.0 | |||||||
| 08 | 00:55 | NW 9 | 10.00 | Fair | CLR | 69.8 | 64.4 | 83% | 29.92 | 0.0 | |||||||
| 08 | 00:35 | NW 5 | 10.00 | Fair | CLR | 69.8 | 66.2 | 88% | 29.91 | 0.0 | |||||||
| 08 | 00:15 | NW 12 | 10.00 | A Few Clouds | FEW016 | 71.6 | 66.2 | 83% | 29.91 | 0.0 | |||||||
| 07 | 23:55 | NW 13 | 10.00 | Mostly Cloudy | SCT016 BKN021 BKN034 | 71.6 | 69.8 | 94% | 29.9 | 0.0 | |||||||
| 07 | 23:35 | NW 8 | 10.00 | Overcast | SCT020 BKN028 OVC045 | 71.6 | 71.6 | 100% | 29.9 | 0.0 | |||||||
| 07 | 23:15 | W 5 | 10.00 | Partly Cloudy | FEW028 SCT036 | 71.6 | 71.6 | 100% | 29.89 | 0.0 | |||||||
| 07 | 22:55 | W 6 | 10.00 | A Few Clouds | FEW034 | 71.6 | 71.6 | 100% | 29.89 | 0.0 | |||||||
| 07 | 22:35 | W 6 | 10.00 | Fair | CLR | 71.6 | 71.6 | 100% | 29.88 | 0.0 | |||||||
| 07 | 22:16 | W 7 | 10.00 | Fair | CLR | 71.6 | 71.6 | 100% | 29.87 | 0.0 | |||||||
| 07 | 21:55 | W 6 | 10.00 | Fair | CLR | 71.6 | 71.6 | 100% | 29.87 | 0.0 | |||||||
| 07 | 21:35 | SW 7 | 10.00 | Fair | CLR | 71.6 | 71.6 | 100% | 29.86 | 0.0 | |||||||
| 07 | 21:15 | SW 6 | 10.00 | Fair | CLR | 71.6 | 71.6 | 100% | 29.85 | 0.0 | |||||||
| 07 | 20:55 | SW 5 | 10.00 | Fair | CLR | 71.6 | 71.6 | 100% | 29.85 | 0.0 | |||||||
| 07 | 20:35 | SW 5 | 10.00 | A Few Clouds | FEW043 | 71.6 | 71.6 | 100% | 29.84 | 0.0 | |||||||
| 07 | 20:15 | SW 5 | 10.00 | Fair | CLR | 73.4 | 71.6 | 94% | 29.84 | 0.0 | |||||||
| 07 | 19:55 | W 6 | 10.00 | A Few Clouds | FEW034 | 75.2 | 71.6 | 81.3 | 74.5 | 89% | 75 | 29.84 | 0.0 | ||||
| 07 | 19:35 | W 6 | 10.00 | Overcast | BKN030 BKN037 OVC046 | 75.2 | 71.6 | 89% | 75 | 29.83 | 0.0 | ||||||
| 07 | 19:15 | W 6 | 10.00 | Overcast | BKN026 BKN033 OVC042 | 75.2 | 71.6 | 89% | 75 | 29.83 | 0.0 | ||||||
| 07 | 18:55 | W 9 G 16 | 10.00 | Mostly Cloudy | BKN024 BKN037 BKN050 | 75.2 | 71.6 | 89% | 75 | 29.83 | 0.0 | ||||||
| 07 | 18:35 | W 14 G 17 | 8.00 | Light Rain | SCT017 BKN024 OVC050 | 77 | 73.4 | 89% | 78 | 29.82 | 0.0 | ||||||
| 07 | 18:15 | NW 12 | 8.00 | Light Rain | FEW019 OVC026 | 77 | 73.4 | 89% | 78 | 29.82 | 0.0 | ||||||
| 07 | 17:55 | W 9 G 21 | 10.00 | Overcast | OVC028 | 78.8 | 71.6 | 79% | 82 | 29.81 | 0.0 | ||||||
| 07 | 17:35 | W 12 G 25 | 10.00 | Overcast | BKN030 OVC036 | 80.6 | 69.8 | 70% | 84 | 29.81 | 0.0 | ||||||
| 07 | 17:15 | SW 15 G 22 | 10.00 | Overcast | BKN030 OVC037 | 80.6 | 71.6 | 74% | 85 | 29.8 | 0.0 | ||||||
| Date | Time (edt) | Wind (mph) | Vis. (mi.) | Weather | Sky Cond. | Air | Dwpt | Max. | Min. | Relative Humidity | Wind Chill (°F) | Heat Index (°F) | altimeter (in) | sea level (mb) | 1 hr | 3 hr | 6 hr |
| 6 hour | |||||||||||||||||
| Temperature (ºF) | Pressure | Precipitation (in) | |||||||||||||||